sensor_id;sensor_type;location;lat;lon;timestamp;P1;P2;P0
49462;PMS5003;35357;51.722;0.500;2022-08-06T00:02:01;2;2;
49462;PMS5003;35357;51.722;0.500;2022-08-06T00:04:29;2;2;
49462;PMS5003;35357;51.722;0.500;2022-08-06T00:06:56;2;2;
49462;PMS5003;35357;51.722;0.500;2022-08-06T00:09:24;2;2;
49462;PMS5003;35357;51.722;0.500;2022-08-06T00:11:52;0;0;
49462;PMS5003;35357;51.722;0.500;2022-08-06T00:14:18;2;2;
49462;PMS5003;35357;51.722;0.500;2022-08-06T00:16:45;1;1;
49462;PMS5003;35357;51.722;0.500;2022-08-06T00:19:12;2;2;
49462;PMS5003;35357;51.722;0.500;2022-08-06T00:21:39;0;0;
49462;PMS5003;35357;51.722;0.500;2022-08-06T00:24:06;2;2;
49462;PMS5003;35357;51.722;0.500;2022-08-06T00:26:33;1;1;
49462;PMS5003;35357;51.722;0.500;2022-08-06T00:29:00;2;2;
49462;PMS5003;35357;51.722;0.500;2022-08-06T00:31:27;2;2;
49462;PMS5003;35357;51.722;0.500;2022-08-06T00:33:55;3;3;
49462;PMS5003;35357;51.722;0.500;2022-08-06T00:36:22;4;3;
49462;PMS5003;35357;51.722;0.500;2022-08-06T00:38:49;2;2;
49462;PMS5003;35357;51.722;0.500;2022-08-06T00:41:18;3;3;
49462;PMS5003;35357;51.722;0.500;2022-08-06T00:43:46;3;3;
49462;PMS5003;35357;51.722;0.500;2022-08-06T00:46:13;1;1;
49462;PMS5003;35357;51.722;0.500;2022-08-06T00:48:40;2;2;
49462;PMS5003;35357;51.722;0.500;2022-08-06T00:51:08;1;1;
49462;PMS5003;35357;51.722;0.500;2022-08-06T00:53:35;3;3;
49462;PMS5003;35357;51.722;0.500;2022-08-06T00:56:02;2;2;
49462;PMS5003;35357;51.722;0.500;2022-08-06T00:58:29;2;2;
49462;PMS5003;35357;51.722;0.500;2022-08-06T01:00:57;2;2;
49462;PMS5003;35357;51.722;0.500;2022-08-06T01:03:25;3;2;
49462;PMS5003;35357;51.722;0.500;2022-08-06T01:05:52;2;1;
49462;PMS5003;35357;51.722;0.500;2022-08-06T01:08:19;5;5;
49462;PMS5003;35357;51.722;0.500;2022-08-06T01:10:46;4;4;
49462;PMS5003;35357;51.722;0.500;2022-08-06T01:13:14;3;3;
49462;PMS5003;35357;51.722;0.500;2022-08-06T01:15:42;3;3;
49462;PMS5003;35357;51.722;0.500;2022-08-06T01:18:18;4;3;
49462;PMS5003;35357;51.722;0.500;2022-08-06T01:21:08;3;3;
49462;PMS5003;35357;51.722;0.500;2022-08-06T01:23:49;4;4;
49462;PMS5003;35357;51.722;0.500;2022-08-06T01:26:32;4;4;
49462;PMS5003;35357;51.722;0.500;2022-08-06T01:29:05;4;4;
49462;PMS5003;35357;51.722;0.500;2022-08-06T01:31:41;5;5;
49462;PMS5003;35357;51.722;0.500;2022-08-06T01:34:13;4;4;
49462;PMS5003;35357;51.722;0.500;2022-08-06T01:36:48;5;3;
49462;PMS5003;35357;51.722;0.500;2022-08-06T01:39:18;5;5;
49462;PMS5003;35357;51.722;0.500;2022-08-06T01:41:49;5;5;
49462;PMS5003;35357;51.722;0.500;2022-08-06T01:44:20;6;5;
49462;PMS5003;35357;51.722;0.500;2022-08-06T01:46:50;6;5;
49462;PMS5003;35357;51.722;0.500;2022-08-06T01:49:20;5;5;
49462;PMS5003;35357;51.722;0.500;2022-08-06T01:51:51;7;7;
49462;PMS5003;35357;51.722;0.500;2022-08-06T01:54:21;6;6;
49462;PMS5003;35357;51.722;0.500;2022-08-06T01:56:50;5;5;
49462;PMS5003;35357;51.722;0.500;2022-08-06T01:59:20;7;6;
49462;PMS5003;35357;51.722;0.500;2022-08-06T02:01:52;6;6;
49462;PMS5003;35357;51.722;0.500;2022-08-06T02:04:24;5;5;
49462;PMS5003;35357;51.722;0.500;2022-08-06T02:06:55;6;6;
49462;PMS5003;35357;51.722;0.500;2022-08-06T02:09:25;8;8;
49462;PMS5003;35357;51.722;0.500;2022-08-06T02:11:55;6;6;
49462;PMS5003;35357;51.722;0.500;2022-08-06T02:14:26;7;7;
49462;PMS5003;35357;51.722;0.500;2022-08-06T02:16:57;5;5;
49462;PMS5003;35357;51.722;0.500;2022-08-06T02:19:28;7;6;
49462;PMS5003;35357;51.722;0.500;2022-08-06T02:21:57;7;7;
49462;PMS5003;35357;51.722;0.500;2022-08-06T02:24:28;9;8;
49462;PMS5003;35357;51.722;0.500;2022-08-06T02:26:59;8;8;
49462;PMS5003;35357;51.722;0.500;2022-08-06T02:29:29;7;7;
49462;PMS5003;35357;51.722;0.500;2022-08-06T02:31:57;5;5;
49462;PMS5003;35357;51.722;0.500;2022-08-06T02:34:24;6;6;
49462;PMS5003;35357;51.722;0.500;2022-08-06T02:36:54;6;6;
49462;PMS5003;35357;51.722;0.500;2022-08-06T02:39:24;6;6;
49462;PMS5003;35357;51.722;0.500;2022-08-06T02:41:58;8;8;
49462;PMS5003;35357;51.722;0.500;2022-08-06T02:44:34;5;5;
49462;PMS5003;35357;51.722;0.500;2022-08-06T02:47:07;7;6;
49462;PMS5003;35357;51.722;0.500;2022-08-06T02:49:40;7;7;
49462;PMS5003;35357;51.722;0.500;2022-08-06T02:52:12;9;8;
49462;PMS5003;35357;51.722;0.500;2022-08-06T02:54:44;6;6;
49462;PMS5003;35357;51.722;0.500;2022-08-06T02:57:17;7;7;
49462;PMS5003;35357;51.722;0.500;2022-08-06T02:59:51;5;5;
49462;PMS5003;35357;51.722;0.500;2022-08-06T03:02:22;9;9;
49462;PMS5003;35357;51.722;0.500;2022-08-06T03:04:51;10;9;
49462;PMS5003;35357;51.722;0.500;2022-08-06T03:07:21;8;8;
49462;PMS5003;35357;51.722;0.500;2022-08-06T03:09:53;10;10;
49462;PMS5003;35357;51.722;0.500;2022-08-06T03:12:22;10;9;
49462;PMS5003;35357;51.722;0.500;2022-08-06T03:14:51;10;10;
49462;PMS5003;35357;51.722;0.500;2022-08-06T03:17:20;11;11;
49462;PMS5003;35357;51.722;0.500;2022-08-06T03:19:48;11;10;
49462;PMS5003;35357;51.722;0.500;2022-08-06T03:22:17;8;8;
49462;PMS5003;35357;51.722;0.500;2022-08-06T03:24:46;10;9;
49462;PMS5003;35357;51.722;0.500;2022-08-06T03:27:15;12;11;
49462;PMS5003;35357;51.722;0.500;2022-08-06T03:29:43;9;9;
49462;PMS5003;35357;51.722;0.500;2022-08-06T03:32:12;13;12;
49462;PMS5003;35357;51.722;0.500;2022-08-06T03:34:41;9;9;
49462;PMS5003;35357;51.722;0.500;2022-08-06T03:37:09;8;8;
49462;PMS5003;35357;51.722;0.500;2022-08-06T03:39:39;11;11;
49462;PMS5003;35357;51.722;0.500;2022-08-06T03:42:09;11;11;
49462;PMS5003;35357;51.722;0.500;2022-08-06T03:44:36;14;13;
49462;PMS5003;35357;51.722;0.500;2022-08-06T03:47:05;12;11;
49462;PMS5003;35357;51.722;0.500;2022-08-06T03:49:36;11;10;
49462;PMS5003;35357;51.722;0.500;2022-08-06T03:52:08;14;12;
49462;PMS5003;35357;51.722;0.500;2022-08-06T03:54:46;14;13;
49462;PMS5003;35357;51.722;0.500;2022-08-06T03:57:17;12;12;
49462;PMS5003;35357;51.722;0.500;2022-08-06T03:59:50;13;13;
49462;PMS5003;35357;51.722;0.500;2022-08-06T04:02:20;13;12;
49462;PMS5003;35357;51.722;0.500;2022-08-06T04:04:47;15;13;
49462;PMS5003;35357;51.722;0.500;2022-08-06T04:07:15;16;14;
49462;PMS5003;35357;51.722;0.500;2022-08-06T04:09:44;13;12;
49462;PMS5003;35357;51.722;0.500;2022-08-06T04:12:11;16;13;
49462;PMS5003;35357;51.722;0.500;2022-08-06T04:14:40;15;13;
49462;PMS5003;35357;51.722;0.500;2022-08-06T04:17:08;13;13;
49462;PMS5003;35357;51.722;0.500;2022-08-06T04:19:37;14;14;
49462;PMS5003;35357;51.722;0.500;2022-08-06T04:22:05;15;14;
49462;PMS5003;35357;51.722;0.500;2022-08-06T04:24:32;18;16;
49462;PMS5003;35357;51.722;0.500;2022-08-06T04:27:00;14;14;
49462;PMS5003;35357;51.722;0.500;2022-08-06T04:29:31;14;13;
49462;PMS5003;35357;51.722;0.500;2022-08-06T04:32:01;14;13;
49462;PMS5003;35357;51.722;0.500;2022-08-06T04:34:30;15;15;
49462;PMS5003;35357;51.722;0.500;2022-08-06T04:37:00;15;14;
49462;PMS5003;35357;51.722;0.500;2022-08-06T04:39:28;13;13;
49462;PMS5003;35357;51.722;0.500;2022-08-06T04:41:58;14;14;
49462;PMS5003;35357;51.722;0.500;2022-08-06T04:44:25;16;15;
49462;PMS5003;35357;51.722;0.500;2022-08-06T04:46:54;16;16;
49462;PMS5003;35357;51.722;0.500;2022-08-06T04:49:22;19;18;
49462;PMS5003;35357;51.722;0.500;2022-08-06T04:51:49;15;14;
49462;PMS5003;35357;51.722;0.500;2022-08-06T04:54:17;16;16;
49462;PMS5003;35357;51.722;0.500;2022-08-06T04:56:44;16;16;
49462;PMS5003;35357;51.722;0.500;2022-08-06T04:59:11;12;12;
49462;PMS5003;35357;51.722;0.500;2022-08-06T05:01:39;19;16;
49462;PMS5003;35357;51.722;0.500;2022-08-06T05:04:06;18;16;
49462;PMS5003;35357;51.722;0.500;2022-08-06T05:06:37;18;18;
49462;PMS5003;35357;51.722;0.500;2022-08-06T05:09:15;18;18;
49462;PMS5003;35357;51.722;0.500;2022-08-06T05:11:47;18;18;
49462;PMS5003;35357;51.722;0.500;2022-08-06T05:14:20;21;18;
49462;PMS5003;35357;51.722;0.500;2022-08-06T05:16:52;17;16;
49462;PMS5003;35357;51.722;0.500;2022-08-06T05:19:25;16;16;
49462;PMS5003;35357;51.722;0.500;2022-08-06T05:21:57;17;15;
49462;PMS5003;35357;51.722;0.500;2022-08-06T05:24:25;18;14;
49462;PMS5003;35357;51.722;0.500;2022-08-06T05:26:55;15;15;
49462;PMS5003;35357;51.722;0.500;2022-08-06T05:29:22;19;17;
49462;PMS5003;35357;51.722;0.500;2022-08-06T05:31:50;18;16;
49462;PMS5003;35357;51.722;0.500;2022-08-06T05:34:25;18;16;
49462;PMS5003;35357;51.722;0.500;2022-08-06T05:36:52;19;18;
49462;PMS5003;35357;51.722;0.500;2022-08-06T05:39:20;18;18;
49462;PMS5003;35357;51.722;0.500;2022-08-06T05:41:47;19;17;
49462;PMS5003;35357;51.722;0.500;2022-08-06T05:44:14;17;17;
49462;PMS5003;35357;51.722;0.500;2022-08-06T05:46:41;19;19;
49462;PMS5003;35357;51.722;0.500;2022-08-06T05:49:20;19;19;
49462;PMS5003;35357;51.722;0.500;2022-08-06T05:51:53;17;17;
49462;PMS5003;35357;51.722;0.500;2022-08-06T05:54:27;20;20;
49462;PMS5003;35357;51.722;0.500;2022-08-06T05:57:02;23;21;
49462;PMS5003;35357;51.722;0.500;2022-08-06T05:59:35;19;19;
49462;PMS5003;35357;51.722;0.500;2022-08-06T06:02:08;19;18;
49462;PMS5003;35357;51.722;0.500;2022-08-06T06:04:38;20;20;
49462;PMS5003;35357;51.722;0.500;2022-08-06T06:07:06;23;22;
49462;PMS5003;35357;51.722;0.500;2022-08-06T06:09:34;20;20;
49462;PMS5003;35357;51.722;0.500;2022-08-06T06:12:02;24;22;
49462;PMS5003;35357;51.722;0.500;2022-08-06T06:14:34;19;19;
49462;PMS5003;35357;51.722;0.500;2022-08-06T06:17:07;24;21;
49462;PMS5003;35357;51.722;0.500;2022-08-06T06:19:49;20;19;
49462;PMS5003;35357;51.722;0.500;2022-08-06T06:22:25;22;21;
49462;PMS5003;35357;51.722;0.500;2022-08-06T06:24:57;27;27;
49462;PMS5003;35357;51.722;0.500;2022-08-06T06:27:30;21;21;
49462;PMS5003;35357;51.722;0.500;2022-08-06T06:30:10;23;22;
49462;PMS5003;35357;51.722;0.500;2022-08-06T06:32:46;22;20;
49462;PMS5003;35357;51.722;0.500;2022-08-06T06:35:32;26;22;
49462;PMS5003;35357;51.722;0.500;2022-08-06T06:38:13;19;19;
49462;PMS5003;35357;51.722;0.500;2022-08-06T06:40:51;26;25;
49462;PMS5003;35357;51.722;0.500;2022-08-06T06:43:24;24;23;
49462;PMS5003;35357;51.722;0.500;2022-08-06T06:46:02;22;22;
49462;PMS5003;35357;51.722;0.500;2022-08-06T06:48:37;23;22;
49462;PMS5003;35357;51.722;0.500;2022-08-06T06:51:12;20;19;
49462;PMS5003;35357;51.722;0.500;2022-08-06T06:53:46;27;22;
49462;PMS5003;35357;51.722;0.500;2022-08-06T06:56:18;21;20;
49462;PMS5003;35357;51.722;0.500;2022-08-06T06:58:50;25;24;
49462;PMS5003;35357;51.722;0.500;2022-08-06T07:01:22;22;22;
49462;PMS5003;35357;51.722;0.500;2022-08-06T07:03:50;27;26;
49462;PMS5003;35357;51.722;0.500;2022-08-06T07:06:17;19;19;
49462;PMS5003;35357;51.722;0.500;2022-08-06T07:08:46;21;21;
49462;PMS5003;35357;51.722;0.500;2022-08-06T07:11:15;22;21;
49462;PMS5003;35357;51.722;0.500;2022-08-06T07:13:46;28;23;
49462;PMS5003;35357;51.722;0.500;2022-08-06T07:16:15;23;23;
49462;PMS5003;35357;51.722;0.500;2022-08-06T07:18:44;24;23;
49462;PMS5003;35357;51.722;0.500;2022-08-06T07:21:13;24;23;
49462;PMS5003;35357;51.722;0.500;2022-08-06T07:23:42;28;26;
49462;PMS5003;35357;51.722;0.500;2022-08-06T07:26:12;25;24;
49462;PMS5003;35357;51.722;0.500;2022-08-06T07:28:42;20;20;
49462;PMS5003;35357;51.722;0.500;2022-08-06T07:31:10;21;20;
49462;PMS5003;35357;51.722;0.500;2022-08-06T07:33:40;20;19;
49462;PMS5003;35357;51.722;0.500;2022-08-06T07:36:10;26;22;
49462;PMS5003;35357;51.722;0.500;2022-08-06T07:38:40;20;20;
49462;PMS5003;35357;51.722;0.500;2022-08-06T07:41:11;21;20;
49462;PMS5003;35357;51.722;0.500;2022-08-06T07:43:41;19;19;
49462;PMS5003;35357;51.722;0.500;2022-08-06T07:46:15;21;20;
49462;PMS5003;35357;51.722;0.500;2022-08-06T07:48:46;21;20;
49462;PMS5003;35357;51.722;0.500;2022-08-06T07:51:18;21;19;
49462;PMS5003;35357;51.722;0.500;2022-08-06T07:53:48;17;17;
49462;PMS5003;35357;51.722;0.500;2022-08-06T07:56:18;21;20;
49462;PMS5003;35357;51.722;0.500;2022-08-06T07:58:45;19;19;
49462;PMS5003;35357;51.722;0.500;2022-08-06T08:01:14;18;17;
49462;PMS5003;35357;51.722;0.500;2022-08-06T08:03:41;20;18;
49462;PMS5003;35357;51.722;0.500;2022-08-06T08:06:09;18;17;
49462;PMS5003;35357;51.722;0.500;2022-08-06T08:08:37;19;18;
49462;PMS5003;35357;51.722;0.500;2022-08-06T08:11:05;20;19;
49462;PMS5003;35357;51.722;0.500;2022-08-06T08:13:34;17;16;
49462;PMS5003;35357;51.722;0.500;2022-08-06T08:16:04;22;20;
49462;PMS5003;35357;51.722;0.500;2022-08-06T08:18:33;15;15;
49462;PMS5003;35357;51.722;0.500;2022-08-06T08:21:01;14;13;
49462;PMS5003;35357;51.722;0.500;2022-08-06T08:23:29;15;15;
49462;PMS5003;35357;51.722;0.500;2022-08-06T08:25:58;18;17;
49462;PMS5003;35357;51.722;0.500;2022-08-06T08:28:27;17;16;
49462;PMS5003;35357;51.722;0.500;2022-08-06T08:30:54;16;15;
49462;PMS5003;35357;51.722;0.500;2022-08-06T08:33:22;17;16;
49462;PMS5003;35357;51.722;0.500;2022-08-06T08:35:49;15;15;
49462;PMS5003;35357;51.722;0.500;2022-08-06T08:38:16;15;13;
49462;PMS5003;35357;51.722;0.500;2022-08-06T08:40:44;15;13;
49462;PMS5003;35357;51.722;0.500;2022-08-06T08:43:14;15;14;
49462;PMS5003;35357;51.722;0.500;2022-08-06T08:45:46;15;13;
49462;PMS5003;35357;51.722;0.500;2022-08-06T08:48:14;16;16;
49462;PMS5003;35357;51.722;0.500;2022-08-06T08:50:46;11;11;
49462;PMS5003;35357;51.722;0.500;2022-08-06T08:53:19;13;11;
49462;PMS5003;35357;51.722;0.500;2022-08-06T08:55:52;11;10;
49462;PMS5003;35357;51.722;0.500;2022-08-06T08:58:19;11;11;
49462;PMS5003;35357;51.722;0.500;2022-08-06T09:00:47;13;13;
49462;PMS5003;35357;51.722;0.500;2022-08-06T09:03:14;18;16;
49462;PMS5003;35357;51.722;0.500;2022-08-06T09:05:42;12;11;
49462;PMS5003;35357;51.722;0.500;2022-08-06T09:08:10;12;10;
49462;PMS5003;35357;51.722;0.500;2022-08-06T09:10:38;11;11;
49462;PMS5003;35357;51.722;0.500;2022-08-06T09:13:05;10;10;
49462;PMS5003;35357;51.722;0.500;2022-08-06T09:15:32;9;9;
49462;PMS5003;35357;51.722;0.500;2022-08-06T09:17:59;10;10;
49462;PMS5003;35357;51.722;0.500;2022-08-06T09:20:27;10;9;
49462;PMS5003;35357;51.722;0.500;2022-08-06T09:22:55;8;8;
49462;PMS5003;35357;51.722;0.500;2022-08-06T09:25:40;13;13;
49462;PMS5003;35357;51.722;0.500;2022-08-06T09:28:09;12;11;
49462;PMS5003;35357;51.722;0.500;2022-08-06T09:30:38;11;11;
49462;PMS5003;35357;51.722;0.500;2022-08-06T09:33:10;14;13;
49462;PMS5003;35357;51.722;0.500;2022-08-06T09:35:38;12;12;
49462;PMS5003;35357;51.722;0.500;2022-08-06T09:38:06;11;11;
49462;PMS5003;35357;51.722;0.500;2022-08-06T09:40:34;10;10;
49462;PMS5003;35357;51.722;0.500;2022-08-06T09:43:02;10;9;
49462;PMS5003;35357;51.722;0.500;2022-08-06T09:45:29;9;9;
49462;PMS5003;35357;51.722;0.500;2022-08-06T09:48:00;8;8;
49462;PMS5003;35357;51.722;0.500;2022-08-06T09:50:38;9;9;
49462;PMS5003;35357;51.722;0.500;2022-08-06T09:53:07;9;9;
49462;PMS5003;35357;51.722;0.500;2022-08-06T09:55:34;8;7;
49462;PMS5003;35357;51.722;0.500;2022-08-06T09:58:02;11;10;
49462;PMS5003;35357;51.722;0.500;2022-08-06T10:00:30;10;10;
49462;PMS5003;35357;51.722;0.500;2022-08-06T10:03:00;12;10;
49462;PMS5003;35357;51.722;0.500;2022-08-06T10:05:29;9;9;
49462;PMS5003;35357;51.722;0.500;2022-08-06T10:08:02;9;8;
49462;PMS5003;35357;51.722;0.500;2022-08-06T10:10:49;9;9;
49462;PMS5003;35357;51.722;0.500;2022-08-06T10:13:18;7;7;
49462;PMS5003;35357;51.722;0.500;2022-08-06T10:15:47;10;9;
49462;PMS5003;35357;51.722;0.500;2022-08-06T10:18:28;10;9;
49462;PMS5003;35357;51.722;0.500;2022-08-06T10:21:01;8;8;
49462;PMS5003;35357;51.722;0.500;2022-08-06T10:23:31;7;7;
49462;PMS5003;35357;51.722;0.500;2022-08-06T10:26:00;6;6;
49462;PMS5003;35357;51.722;0.500;2022-08-06T10:28:29;10;8;
49462;PMS5003;35357;51.722;0.500;2022-08-06T10:31:01;7;7;
49462;PMS5003;35357;51.722;0.500;2022-08-06T10:33:31;8;7;
49462;PMS5003;35357;51.722;0.500;2022-08-06T10:36:02;8;8;
49462;PMS5003;35357;51.722;0.500;2022-08-06T10:38:34;10;10;
49462;PMS5003;35357;51.722;0.500;2022-08-06T10:41:06;8;8;
49462;PMS5003;35357;51.722;0.500;2022-08-06T10:43:34;9;9;
49462;PMS5003;35357;51.722;0.500;2022-08-06T10:46:04;8;7;
49462;PMS5003;35357;51.722;0.500;2022-08-06T10:48:34;8;8;
49462;PMS5003;35357;51.722;0.500;2022-08-06T10:51:02;5;5;
49462;PMS5003;35357;51.722;0.500;2022-08-06T10:53:30;6;6;
49462;PMS5003;35357;51.722;0.500;2022-08-06T10:55:59;8;8;
49462;PMS5003;35357;51.722;0.500;2022-08-06T10:58:28;7;7;
49462;PMS5003;35357;51.722;0.500;2022-08-06T11:00:56;8;8;
49462;PMS5003;35357;51.722;0.500;2022-08-06T11:03:27;8;8;
49462;PMS5003;35357;51.722;0.500;2022-08-06T11:06:06;7;7;
49462;PMS5003;35357;51.722;0.500;2022-08-06T11:08:50;7;6;
49462;PMS5003;35357;51.722;0.500;2022-08-06T11:11:34;9;9;
49462;PMS5003;35357;51.722;0.500;2022-08-06T11:14:14;9;9;
49462;PMS5003;35357;51.722;0.500;2022-08-06T11:16:41;9;9;
49462;PMS5003;35357;51.722;0.500;2022-08-06T11:19:36;7;7;
49462;PMS5003;35357;51.722;0.500;2022-08-06T11:22:05;6;6;
49462;PMS5003;35357;51.722;0.500;2022-08-06T11:24:33;8;8;
49462;PMS5003;35357;51.722;0.500;2022-08-06T11:27:48;10;10;
49462;PMS5003;35357;51.722;0.500;2022-08-06T11:30:17;11;10;
49462;PMS5003;35357;51.722;0.500;2022-08-06T11:32:45;10;10;
49462;PMS5003;35357;51.722;0.500;2022-08-06T11:35:47;7;7;
49462;PMS5003;35357;51.722;0.500;2022-08-06T11:38:16;6;6;
49462;PMS5003;35357;51.722;0.500;2022-08-06T11:41:24;9;9;
49462;PMS5003;35357;51.722;0.500;2022-08-06T11:44:07;11;11;
49462;PMS5003;35357;51.722;0.500;2022-08-06T11:46:35;8;8;
49462;PMS5003;35357;51.722;0.500;2022-08-06T11:49:13;7;7;
49462;PMS5003;35357;51.722;0.500;2022-08-06T11:51:43;10;10;
49462;PMS5003;35357;51.722;0.500;2022-08-06T11:54:13;8;8;
49462;PMS5003;35357;51.722;0.500;2022-08-06T11:57:46;9;8;
49462;PMS5003;35357;51.722;0.500;2022-08-06T12:00:14;6;6;
49462;PMS5003;35357;51.722;0.500;2022-08-06T12:02:46;6;6;
49462;PMS5003;35357;51.722;0.500;2022-08-06T12:05:32;8;8;
49462;PMS5003;35357;51.722;0.500;2022-08-06T12:08:18;6;6;
49462;PMS5003;35357;51.722;0.500;2022-08-06T12:11:51;8;8;
49462;PMS5003;35357;51.722;0.500;2022-08-06T12:14:37;8;7;
49462;PMS5003;35357;51.722;0.500;2022-08-06T12:17:10;7;7;
49462;PMS5003;35357;51.722;0.500;2022-08-06T12:19:42;7;7;
49462;PMS5003;35357;51.722;0.500;2022-08-06T12:22:12;7;6;
49462;PMS5003;35357;51.722;0.500;2022-08-06T12:24:40;5;5;
49462;PMS5003;35357;51.722;0.500;2022-08-06T12:27:10;5;5;
49462;PMS5003;35357;51.722;0.500;2022-08-06T12:29:38;3;3;
49462;PMS5003;35357;51.722;0.500;2022-08-06T12:32:26;5;5;
49462;PMS5003;35357;51.722;0.500;2022-08-06T12:34:56;3;3;
49462;PMS5003;35357;51.722;0.500;2022-08-06T12:37:34;6;6;
49462;PMS5003;35357;51.722;0.500;2022-08-06T12:40:05;6;6;
49462;PMS5003;35357;51.722;0.500;2022-08-06T12:42:34;4;4;
49462;PMS5003;35357;51.722;0.500;2022-08-06T12:45:02;4;4;
49462;PMS5003;35357;51.722;0.500;2022-08-06T12:47:34;6;6;
49462;PMS5003;35357;51.722;0.500;2022-08-06T12:50:15;7;5;
49462;PMS5003;35357;51.722;0.500;2022-08-06T12:52:44;5;5;
49462;PMS5003;35357;51.722;0.500;2022-08-06T12:55:27;6;5;
49462;PMS5003;35357;51.722;0.500;2022-08-06T12:57:54;5;5;
49462;PMS5003;35357;51.722;0.500;2022-08-06T13:00:23;5;5;
49462;PMS5003;35357;51.722;0.500;2022-08-06T13:02:51;5;5;
49462;PMS5003;35357;51.722;0.500;2022-08-06T13:05:20;4;4;
49462;PMS5003;35357;51.722;0.500;2022-08-06T13:07:48;4;3;
49462;PMS5003;35357;51.722;0.500;2022-08-06T13:10:16;6;6;
49462;PMS5003;35357;51.722;0.500;2022-08-06T13:12:42;3;3;
49462;PMS5003;35357;51.722;0.500;2022-08-06T13:15:11;6;6;
49462;PMS5003;35357;51.722;0.500;2022-08-06T13:17:40;6;6;
49462;PMS5003;35357;51.722;0.500;2022-08-06T13:20:08;7;6;
49462;PMS5003;35357;51.722;0.500;2022-08-06T13:22:48;5;5;
49462;PMS5003;35357;51.722;0.500;2022-08-06T13:25:17;6;6;
49462;PMS5003;35357;51.722;0.500;2022-08-06T13:27:45;6;5;
49462;PMS5003;35357;51.722;0.500;2022-08-06T13:30:12;6;6;
49462;PMS5003;35357;51.722;0.500;2022-08-06T13:32:40;7;6;
49462;PMS5003;35357;51.722;0.500;2022-08-06T13:35:07;6;6;
49462;PMS5003;35357;51.722;0.500;2022-08-06T13:37:43;5;5;
49462;PMS5003;35357;51.722;0.500;2022-08-06T13:40:12;5;5;
49462;PMS5003;35357;51.722;0.500;2022-08-06T13:42:48;6;5;
49462;PMS5003;35357;51.722;0.500;2022-08-06T13:45:19;6;6;
49462;PMS5003;35357;51.722;0.500;2022-08-06T13:47:48;7;7;
49462;PMS5003;35357;51.722;0.500;2022-08-06T13:50:16;5;5;
49462;PMS5003;35357;51.722;0.500;2022-08-06T13:52:44;6;6;
49462;PMS5003;35357;51.722;0.500;2022-08-06T13:55:11;5;5;
49462;PMS5003;35357;51.722;0.500;2022-08-06T13:57:39;9;7;
49462;PMS5003;35357;51.722;0.500;2022-08-06T14:00:07;7;6;
49462;PMS5003;35357;51.722;0.500;2022-08-06T14:02:35;5;5;
49462;PMS5003;35357;51.722;0.500;2022-08-06T14:05:03;7;7;
49462;PMS5003;35357;51.722;0.500;2022-08-06T14:07:31;8;8;
49462;PMS5003;35357;51.722;0.500;2022-08-06T14:09:58;6;5;
49462;PMS5003;35357;51.722;0.500;2022-08-06T14:12:26;7;7;
49462;PMS5003;35357;51.722;0.500;2022-08-06T14:14:54;7;7;
49462;PMS5003;35357;51.722;0.500;2022-08-06T14:17:21;5;5;
49462;PMS5003;35357;51.722;0.500;2022-08-06T14:19:49;6;6;
49462;PMS5003;35357;51.722;0.500;2022-08-06T14:22:17;5;5;
49462;PMS5003;35357;51.722;0.500;2022-08-06T14:24:44;6;6;
49462;PMS5003;35357;51.722;0.500;2022-08-06T14:27:12;6;6;
49462;PMS5003;35357;51.722;0.500;2022-08-06T14:29:39;6;6;
49462;PMS5003;35357;51.722;0.500;2022-08-06T14:32:07;7;7;
49462;PMS5003;35357;51.722;0.500;2022-08-06T14:34:34;7;7;
49462;PMS5003;35357;51.722;0.500;2022-08-06T14:37:02;7;7;
49462;PMS5003;35357;51.722;0.500;2022-08-06T14:39:29;8;7;
49462;PMS5003;35357;51.722;0.500;2022-08-06T14:41:56;6;6;
49462;PMS5003;35357;51.722;0.500;2022-08-06T14:44:24;8;7;
49462;PMS5003;35357;51.722;0.500;2022-08-06T14:46:52;7;7;
49462;PMS5003;35357;51.722;0.500;2022-08-06T14:49:19;5;5;
49462;PMS5003;35357;51.722;0.500;2022-08-06T14:51:47;7;7;
49462;PMS5003;35357;51.722;0.500;2022-08-06T14:54:15;6;6;
49462;PMS5003;35357;51.722;0.500;2022-08-06T14:56:43;7;7;
49462;PMS5003;35357;51.722;0.500;2022-08-06T14:59:11;5;5;
49462;PMS5003;35357;51.722;0.500;2022-08-06T15:01:38;6;6;
49462;PMS5003;35357;51.722;0.500;2022-08-06T15:04:05;7;7;
49462;PMS5003;35357;51.722;0.500;2022-08-06T15:06:32;7;7;
49462;PMS5003;35357;51.722;0.500;2022-08-06T15:08:59;5;4;
49462;PMS5003;35357;51.722;0.500;2022-08-06T15:11:27;5;5;
49462;PMS5003;35357;51.722;0.500;2022-08-06T15:13:54;9;9;
49462;PMS5003;35357;51.722;0.500;2022-08-06T15:16:21;6;6;
49462;PMS5003;35357;51.722;0.500;2022-08-06T15:18:48;5;5;
49462;PMS5003;35357;51.722;0.500;2022-08-06T15:21:16;7;7;
49462;PMS5003;35357;51.722;0.500;2022-08-06T15:23:44;9;9;
49462;PMS5003;35357;51.722;0.500;2022-08-06T15:26:11;7;7;
49462;PMS5003;35357;51.722;0.500;2022-08-06T15:28:39;7;7;
49462;PMS5003;35357;51.722;0.500;2022-08-06T15:31:05;8;8;
49462;PMS5003;35357;51.722;0.500;2022-08-06T15:33:33;9;9;
49462;PMS5003;35357;51.722;0.500;2022-08-06T15:36:01;8;7;
49462;PMS5003;35357;51.722;0.500;2022-08-06T15:38:28;6;6;
49462;PMS5003;35357;51.722;0.500;2022-08-06T15:40:56;7;7;
49462;PMS5003;35357;51.722;0.500;2022-08-06T15:43:24;8;7;
49462;PMS5003;35357;51.722;0.500;2022-08-06T15:45:51;6;6;
49462;PMS5003;35357;51.722;0.500;2022-08-06T15:48:20;5;5;
49462;PMS5003;35357;51.722;0.500;2022-08-06T15:50:47;7;6;
49462;PMS5003;35357;51.722;0.500;2022-08-06T15:53:15;7;7;
49462;PMS5003;35357;51.722;0.500;2022-08-06T15:55:43;9;8;
49462;PMS5003;35357;51.722;0.500;2022-08-06T15:58:10;8;8;
49462;PMS5003;35357;51.722;0.500;2022-08-06T16:00:39;7;7;
49462;PMS5003;35357;51.722;0.500;2022-08-06T16:03:08;8;8;
49462;PMS5003;35357;51.722;0.500;2022-08-06T16:05:37;7;7;
49462;PMS5003;35357;51.722;0.500;2022-08-06T16:08:07;8;8;
49462;PMS5003;35357;51.722;0.500;2022-08-06T16:10:35;7;7;
49462;PMS5003;35357;51.722;0.500;2022-08-06T16:13:06;9;8;
49462;PMS5003;35357;51.722;0.500;2022-08-06T16:15:34;11;9;
49462;PMS5003;35357;51.722;0.500;2022-08-06T16:18:02;9;9;
49462;PMS5003;35357;51.722;0.500;2022-08-06T16:20:29;9;8;
49462;PMS5003;35357;51.722;0.500;2022-08-06T16:22:56;7;7;
49462;PMS5003;35357;51.722;0.500;2022-08-06T16:25:24;10;8;
49462;PMS5003;35357;51.722;0.500;2022-08-06T16:27:51;7;7;
49462;PMS5003;35357;51.722;0.500;2022-08-06T16:30:19;6;6;
49462;PMS5003;35357;51.722;0.500;2022-08-06T16:32:46;9;9;
49462;PMS5003;35357;51.722;0.500;2022-08-06T16:35:14;6;6;
49462;PMS5003;35357;51.722;0.500;2022-08-06T16:37:41;8;8;
49462;PMS5003;35357;51.722;0.500;2022-08-06T16:40:09;7;7;
49462;PMS5003;35357;51.722;0.500;2022-08-06T16:42:37;8;8;
49462;PMS5003;35357;51.722;0.500;2022-08-06T16:45:06;6;6;
49462;PMS5003;35357;51.722;0.500;2022-08-06T16:47:34;9;9;
49462;PMS5003;35357;51.722;0.500;2022-08-06T16:50:00;8;8;
49462;PMS5003;35357;51.722;0.500;2022-08-06T16:52:28;9;7;
49462;PMS5003;35357;51.722;0.500;2022-08-06T16:54:55;6;6;
49462;PMS5003;35357;51.722;0.500;2022-08-06T16:57:23;6;6;
49462;PMS5003;35357;51.722;0.500;2022-08-06T16:59:51;7;7;
49462;PMS5003;35357;51.722;0.500;2022-08-06T17:02:17;7;7;